createdAt,value
2022-11-27T00:02:40.744Z,35.10
2022-11-27T00:06:19.602Z,33.30
2022-11-27T00:09:53.936Z,35.80
2022-11-27T00:13:31.746Z,47.10
2022-11-27T00:17:09.464Z,41.90
2022-11-27T00:20:47.049Z,39.50
2022-11-27T00:24:24.957Z,33.90
2022-11-27T00:28:02.663Z,36.80
2022-11-27T00:31:40.417Z,39.40
2022-11-27T00:35:17.973Z,40.60
2022-11-27T00:38:56.082Z,41.60
2022-11-27T00:42:33.376Z,41.90
2022-11-27T00:46:11.782Z,38.70
2022-11-27T00:49:48.785Z,35.30
2022-11-27T00:53:26.355Z,35.90
2022-11-27T00:57:04.909Z,32.70
2022-11-27T01:00:41.897Z,38.80
2022-11-27T01:04:19.601Z,33.10
2022-11-27T01:07:57.356Z,34.50
2022-11-27T01:11:36.439Z,36.40
2022-11-27T01:15:12.918Z,37.40
2022-11-27T01:18:51.749Z,39.20
2022-11-27T01:22:28.019Z,39.00
2022-11-27T01:26:08.590Z,33.70
2022-11-27T01:29:43.326Z,31.50
2022-11-27T01:33:21.234Z,32.60
2022-11-27T01:36:58.836Z,31.90
2022-11-27T01:40:36.462Z,32.00
2022-11-27T01:44:26.122Z,31.60
2022-11-27T01:47:59.119Z,32.30
2022-11-27T01:51:31.393Z,32.80
2022-11-27T01:55:40.022Z,32.50
2022-11-27T01:58:50.800Z,34.60
2022-11-27T02:02:28.557Z,36.60
2022-11-27T02:06:05.793Z,32.70
2022-11-27T02:09:43.704Z,35.90
2022-11-27T02:13:32.774Z,35.60
2022-11-27T02:17:22.561Z,36.00
2022-11-27T02:20:45.829Z,34.10
2022-11-27T02:25:08.588Z,37.70
2022-11-27T02:28:46.599Z,37.80
2022-11-27T02:32:20.309Z,35.20
2022-11-27T02:35:45.931Z,37.70
2022-11-27T02:39:18.269Z,36.10
2022-11-27T02:42:56.014Z,37.90
2022-11-27T02:46:29.360Z,33.80
2022-11-27T02:50:11.311Z,33.80
2022-11-27T02:53:48.310Z,37.30
2022-11-27T02:57:23.659Z,35.90
2022-11-27T03:01:00.034Z,33.80
2022-11-27T03:04:46.541Z,35.00
2022-11-27T03:08:44.009Z,35.00
2022-11-27T03:11:55.702Z,38.10
2022-11-27T03:15:50.845Z,35.10
2022-11-27T03:19:17.375Z,34.60
2022-11-27T03:22:47.687Z,32.90
2022-11-27T03:26:26.559Z,34.30
2022-11-27T03:30:07.487Z,34.70
2022-11-27T03:33:40.805Z,37.60
2022-11-27T03:37:18.811Z,35.60
2022-11-27T03:41:08.602Z,32.10
2022-11-27T03:45:01.906Z,32.10
2022-11-27T03:48:19.809Z,32.30
2022-11-27T03:52:21.886Z,32.30
2022-11-27T03:55:42.796Z,31.10
2022-11-27T03:59:18.247Z,32.70
2022-11-27T04:02:51.036Z,30.60
2022-11-27T04:06:25.360Z,31.10
2022-11-27T04:10:04.386Z,30.10
2022-11-27T04:13:40.874Z,33.20
2022-11-27T04:17:18.574Z,28.10
2022-11-27T04:20:56.688Z,33.50
2022-11-27T04:24:33.881Z,32.10
2022-11-27T04:28:11.687Z,31.50
2022-11-27T04:31:49.375Z,30.50
2022-11-27T04:35:27.002Z,29.20
2022-11-27T04:39:04.698Z,30.20
2022-11-27T04:42:42.504Z,33.30
2022-11-27T04:46:20.258Z,31.30
2022-11-27T04:49:57.810Z,31.30
2022-11-27T04:53:35.515Z,30.40
2022-11-27T04:57:13.218Z,27.60
2022-11-27T05:00:51.009Z,29.40
2022-11-27T05:04:28.626Z,28.70
2022-11-27T05:08:06.334Z,30.30
2022-11-27T05:11:44.239Z,28.10
2022-11-27T05:15:21.689Z,28.90
2022-11-27T05:18:59.444Z,28.80
2022-11-27T05:22:37.146Z,27.30
2022-11-27T05:26:14.647Z,30.80
2022-11-27T05:29:52.556Z,31.10
2022-11-27T05:33:30.261Z,30.40
2022-11-27T05:37:07.966Z,32.10
2022-11-27T05:40:45.566Z,26.90
2022-11-27T05:44:23.270Z,28.00
2022-11-27T05:48:01.078Z,36.80
2022-11-27T05:51:38.884Z,36.70
2022-11-27T05:55:16.484Z,36.20
2022-11-27T05:58:54.087Z,31.20
2022-11-27T06:02:32.717Z,33.20
2022-11-27T06:06:20.349Z,32.40
2022-11-27T06:09:47.217Z,38.00
2022-11-27T06:13:24.902Z,33.20
2022-11-27T06:17:03.018Z,34.60
2022-11-27T06:20:59.156Z,37.30
2022-11-27T06:24:18.014Z,38.10
2022-11-27T06:27:55.720Z,32.20
2022-11-27T06:31:33.863Z,35.80
2022-11-27T06:35:11.332Z,35.20
2022-11-27T06:38:48.735Z,37.30
2022-11-27T06:42:30.369Z,33.40
2022-11-27T06:46:06.542Z,32.30
2022-11-27T06:49:41.843Z,33.20
2022-11-27T06:53:19.956Z,35.70
2022-11-27T06:56:58.478Z,33.90
2022-11-27T07:00:34.880Z,33.30
2022-11-27T07:04:15.014Z,35.30
2022-11-27T07:07:50.476Z,33.00
2022-11-27T07:11:31.989Z,38.20
2022-11-27T07:15:06.283Z,35.40
2022-11-27T07:18:47.061Z,32.80
2022-11-27T07:22:21.180Z,33.20
2022-11-27T07:25:59.808Z,36.30
2022-11-27T07:29:36.587Z,33.30
2022-11-27T07:33:14.291Z,32.40
2022-11-27T07:36:52.918Z,34.60
2022-11-27T07:40:29.598Z,31.30
2022-11-27T07:44:07.301Z,36.00
2022-11-27T07:47:45.195Z,34.20
2022-11-27T07:51:23.022Z,35.00
2022-11-27T07:55:00.312Z,33.80
2022-11-27T07:58:38.119Z,37.80
2022-11-27T08:02:16.129Z,34.70
2022-11-27T08:05:53.528Z,33.00
2022-11-27T08:09:31.333Z,35.90
2022-11-27T08:13:09.448Z,41.60
2022-11-27T08:16:46.777Z,33.00
2022-11-27T08:20:24.753Z,31.90
2022-11-27T08:24:02.047Z,32.70
2022-11-27T08:27:39.958Z,36.00
2022-11-27T08:31:18.228Z,37.50
2022-11-27T08:34:55.058Z,36.50
2022-11-27T08:38:33.171Z,33.60
2022-11-27T08:42:10.569Z,38.00
2022-11-27T08:46:07.498Z,41.20
2022-11-27T08:49:25.979Z,40.20
2022-11-27T08:53:03.988Z,34.60
2022-11-27T08:56:41.283Z,36.20
2022-11-27T09:00:24.943Z,39.00
2022-11-27T09:03:57.185Z,36.90
2022-11-27T09:07:34.520Z,33.60
2022-11-27T09:11:13.738Z,36.60
2022-11-27T09:14:49.804Z,34.40
2022-11-27T09:18:27.508Z,29.60
2022-11-27T09:22:05.211Z,34.90
2022-11-27T09:26:03.601Z,33.60
2022-11-27T09:29:20.761Z,35.00
2022-11-27T09:32:58.326Z,30.90
2022-11-27T09:36:36.542Z,28.10
2022-11-27T09:40:16.977Z,25.30
2022-11-27T09:43:57.002Z,22.40
2022-11-27T09:47:41.992Z,24.60
2022-11-27T09:51:15.447Z,24.50
2022-11-27T09:55:18.343Z,21.50
2022-11-27T09:58:38.856Z,22.60
2022-11-27T10:02:18.310Z,25.50
2022-11-27T10:06:04.388Z,25.00
2022-11-27T10:09:36.972Z,23.70
2022-11-27T10:13:14.304Z,30.00
2022-11-27T10:16:44.359Z,28.40
2022-11-27T10:20:50.565Z,25.40
2022-11-27T10:24:07.175Z,26.30
2022-11-27T10:27:44.474Z,23.30
2022-11-27T10:31:36.682Z,22.80
2022-11-27T10:35:01.725Z,22.30
2022-11-27T10:38:39.219Z,32.50
2022-11-27T10:42:48.772Z,31.20
2022-11-27T10:46:22.154Z,21.80
2022-11-27T10:49:41.026Z,22.60
2022-11-27T10:53:29.152Z,20.70
2022-11-27T10:57:05.763Z,21.10
2022-11-27T11:00:29.851Z,20.40
2022-11-27T11:04:31.643Z,21.10
2022-11-27T11:07:57.109Z,18.40
2022-11-27T11:11:26.980Z,16.20
2022-11-27T11:15:01.699Z,17.50
2022-11-27T11:18:49.248Z,17.10
2022-11-27T11:22:17.405Z,15.60
2022-11-27T11:25:57.126Z,14.00
2022-11-27T11:29:42.439Z,41.80
2022-11-27T11:33:13.791Z,39.70
2022-11-27T11:36:57.821Z,37.60
2022-11-27T11:40:31.550Z,49.20
2022-11-27T11:44:02.708Z,25.60
2022-11-27T11:47:49.751Z,25.30
2022-11-27T11:51:29.411Z,20.20
2022-11-27T11:55:14.457Z,37.60
2022-11-27T11:58:35.982Z,25.50
2022-11-27T12:02:43.394Z,26.80
2022-11-27T12:06:00.710Z,21.00
2022-11-27T12:09:41.690Z,17.00
2022-11-27T12:13:32.947Z,23.10
2022-11-27T12:17:00.712Z,17.80
2022-11-27T12:20:57.740Z,19.00
2022-11-27T12:24:48.553Z,18.10
2022-11-27T12:28:24.515Z,15.50
2022-11-27T12:32:11.760Z,16.20
2022-11-27T12:35:37.877Z,18.00
2022-11-27T12:39:23.157Z,23.00
2022-11-27T12:43:06.939Z,22.40
2022-11-27T12:46:26.915Z,18.60
2022-11-27T12:50:03.607Z,16.30
2022-11-27T12:53:51.830Z,17.00
2022-11-27T12:57:28.302Z,33.50
2022-11-27T13:00:50.759Z,19.60
2022-11-27T13:04:37.469Z,17.10
2022-11-27T13:08:16.623Z,19.10
2022-11-27T13:11:43.345Z,17.90
2022-11-27T13:15:45.563Z,17.80
2022-11-27T13:19:14.642Z,18.90
2022-11-27T13:22:37.206Z,17.10
2022-11-27T13:26:23.231Z,18.60
2022-11-27T13:30:02.773Z,20.50
2022-11-27T13:33:37.761Z,20.40
2022-11-27T13:37:08.402Z,21.00
2022-11-27T13:40:46.907Z,21.20
2022-11-27T13:44:27.425Z,23.50
2022-11-27T13:48:12.164Z,22.70
2022-11-27T13:51:39.425Z,21.40
2022-11-27T13:55:24.530Z,20.30
2022-11-27T13:58:52.288Z,20.60
2022-11-27T14:02:59.486Z,22.90
2022-11-27T14:06:21.937Z,23.90
2022-11-27T14:09:56.793Z,23.00
2022-11-27T14:13:40.925Z,24.40
2022-11-27T14:17:07.676Z,25.00
2022-11-27T14:20:51.602Z,24.40
2022-11-27T14:24:30.390Z,25.70
2022-11-27T14:28:19.916Z,24.60
2022-11-27T14:31:36.144Z,25.70
2022-11-27T14:35:23.986Z,24.20
2022-11-27T14:38:50.411Z,24.90
2022-11-27T14:42:31.248Z,26.00
2022-11-27T14:46:06.314Z,25.90
2022-11-27T14:49:43.551Z,24.60
2022-11-27T14:53:22.854Z,23.90
2022-11-27T14:57:00.675Z,29.00
2022-11-27T15:00:35.801Z,30.40
2022-11-27T15:04:36.342Z,27.20
2022-11-27T15:07:54.231Z,30.10
2022-11-27T15:11:54.089Z,29.70
2022-11-27T15:15:14.802Z,29.80
2022-11-27T15:18:50.982Z,30.40
2022-11-27T15:22:22.951Z,41.70
2022-11-27T15:25:59.424Z,41.90
2022-11-27T15:29:38.374Z,39.20
2022-11-27T15:33:33.059Z,43.10
2022-11-27T15:37:03.794Z,47.20
2022-11-27T15:40:34.568Z,46.40
2022-11-27T15:44:29.347Z,32.20
2022-11-27T15:47:45.649Z,36.80
2022-11-27T15:51:23.426Z,36.70
2022-11-27T15:55:01.603Z,33.90
2022-11-27T15:58:40.167Z,37.50
2022-11-27T16:02:18.305Z,37.30
2022-11-27T16:05:55.951Z,32.50
2022-11-27T16:09:32.865Z,43.90
2022-11-27T16:13:09.887Z,37.20
2022-11-27T16:16:53.783Z,37.70
2022-11-27T16:20:31.382Z,36.20
2022-11-27T16:24:06.191Z,38.30
2022-11-27T16:27:46.332Z,35.50
2022-11-27T16:31:24.233Z,39.50
2022-11-27T16:35:00.291Z,42.30
2022-11-27T16:38:37.919Z,37.40
2022-11-27T16:42:17.367Z,39.20
2022-11-27T16:45:53.230Z,39.00
2022-11-27T16:49:30.832Z,40.20
2022-11-27T16:53:08.563Z,38.20
2022-11-27T16:56:46.272Z,37.70
2022-11-27T17:00:23.834Z,39.30
2022-11-27T17:04:03.778Z,41.50
2022-11-27T17:07:39.918Z,39.20
2022-11-27T17:11:25.148Z,39.80
2022-11-27T17:14:54.690Z,41.00
2022-11-27T17:18:32.796Z,40.30
2022-11-27T17:22:10.359Z,39.40
2022-11-27T17:26:11.620Z,38.80
2022-11-27T17:29:24.821Z,33.50
2022-11-27T17:33:02.654Z,46.90
2022-11-27T17:36:43.182Z,36.50
2022-11-27T17:40:18.163Z,39.90
2022-11-27T17:43:55.664Z,37.80
2022-11-27T17:47:34.289Z,42.90
2022-11-27T17:51:11.300Z,41.70
2022-11-27T17:54:48.775Z,38.30
2022-11-27T17:58:26.583Z,39.90
2022-11-27T18:02:04.444Z,37.40
2022-11-27T18:05:41.989Z,40.00
2022-11-27T18:09:19.562Z,36.80
2022-11-27T18:12:57.296Z,41.20
2022-11-27T18:16:38.780Z,37.30
2022-11-27T18:20:12.805Z,38.60
2022-11-27T18:24:21.262Z,36.40
2022-11-27T18:27:28.112Z,38.00
2022-11-27T18:31:13.501Z,35.90
2022-11-27T18:34:44.954Z,36.60
2022-11-27T18:38:21.327Z,37.20
2022-11-27T18:41:58.951Z,36.00
2022-11-27T18:45:36.658Z,39.20
2022-11-27T18:49:14.439Z,37.70
2022-11-27T18:52:55.092Z,40.40
2022-11-27T18:56:31.818Z,37.60
2022-11-27T19:00:08.268Z,36.50
2022-11-27T19:03:45.153Z,41.60
2022-11-27T19:07:23.026Z,42.30
2022-11-27T19:11:03.598Z,44.10
2022-11-27T19:14:39.606Z,43.00
2022-11-27T19:18:15.972Z,42.90
2022-11-27T19:21:53.777Z,48.50
2022-11-27T19:25:38.716Z,48.70
2022-11-27T19:29:10.004Z,46.00
2022-11-27T19:32:48.836Z,47.70
2022-11-27T19:36:25.947Z,46.00
2022-11-27T19:40:02.025Z,45.20
2022-11-27T19:43:44.239Z,41.10
2022-11-27T19:47:17.708Z,41.20
2022-11-27T19:51:01.656Z,44.70
2022-11-27T19:54:32.909Z,41.50
2022-11-27T19:58:12.691Z,45.10
2022-11-27T20:01:48.392Z,41.30
2022-11-27T20:05:26.124Z,44.70
2022-11-27T20:09:05.691Z,40.10
2022-11-27T20:12:42.249Z,43.40
2022-11-27T20:16:21.128Z,42.30
2022-11-27T20:19:58.073Z,40.30
2022-11-27T20:23:35.302Z,43.00
2022-11-27T20:27:12.353Z,46.00
2022-11-27T20:31:25.334Z,43.30
2022-11-27T20:34:38.638Z,42.10
2022-11-27T20:38:18.079Z,41.10
2022-11-27T20:41:53.563Z,41.80
2022-11-27T20:45:30.411Z,43.10
2022-11-27T20:49:09.177Z,41.50
2022-11-27T20:52:48.120Z,41.20
2022-11-27T20:56:24.775Z,43.80
2022-11-27T21:00:01.211Z,45.80
2022-11-27T21:04:02.973Z,42.40
2022-11-27T21:07:20.786Z,46.50
2022-11-27T21:10:56.268Z,43.70
2022-11-27T21:14:37.661Z,43.40
2022-11-27T21:18:11.676Z,43.20
2022-11-27T21:21:50.111Z,44.90
2022-11-27T21:25:27.392Z,43.40
2022-11-27T21:29:04.488Z,44.30
2022-11-27T21:32:43.930Z,44.10
2022-11-27T21:36:22.997Z,42.50
2022-11-27T21:39:57.798Z,44.30
2022-11-27T21:43:35.402Z,43.10
2022-11-27T21:47:13.313Z,43.60
2022-11-27T21:50:50.707Z,41.60
2022-11-27T21:54:28.615Z,40.40
2022-11-27T21:58:06.319Z,42.00
2022-11-27T22:01:45.501Z,41.40
2022-11-27T22:05:21.627Z,46.00
2022-11-27T22:09:16.113Z,43.60
2022-11-27T22:12:36.930Z,48.30
2022-11-27T22:16:21.103Z,45.20
2022-11-27T22:19:52.380Z,41.50
2022-11-27T22:23:30.186Z,48.70
2022-11-27T22:27:07.891Z,49.10
2022-11-27T22:30:45.650Z,49.10
2022-11-27T22:34:23.402Z,45.70
2022-11-27T22:38:01.003Z,46.60
2022-11-27T22:41:40.285Z,44.30
2022-11-27T22:45:16.513Z,43.10
2022-11-27T22:48:59.030Z,42.20
2022-11-27T22:52:31.718Z,40.80
2022-11-27T22:56:12.615Z,41.40
2022-11-27T22:59:47.253Z,42.30
2022-11-27T23:03:24.940Z,43.00
2022-11-27T23:07:02.636Z,37.80
2022-11-27T23:10:40.647Z,45.80
2022-11-27T23:14:18.147Z,43.40
2022-11-27T23:17:55.462Z,37.50
2022-11-27T23:21:37.658Z,43.60
2022-11-27T23:25:10.852Z,40.30
2022-11-27T23:28:51.217Z,41.80
2022-11-27T23:32:26.354Z,41.80
2022-11-27T23:36:05.184Z,40.70
2022-11-27T23:39:41.565Z,42.10
2022-11-27T23:43:19.447Z,42.40
2022-11-27T23:46:57.075Z,35.90
2022-11-27T23:50:34.984Z,47.10
2022-11-27T23:54:12.791Z,54.10
2022-11-27T23:57:50.400Z,47.30
